Toledo, España

6:00 PM CET en Diciembre 22, 2014 (GMT +0100)
FV Toledo PV | Change Station
CLOSE
Current Station
Estación meteorológica personal
Location: Puebal De Montalban, TOLEDO
Altura: 1413 ft
Estaciones meteorológicas cercanas

Alt 1413 ft 39.83 °N, 4.29 °W | Updated 21 seconds ago

Clear
Despejado
49.9 ° F
Sensación térmica 50 ° F
N
0.0
Viento Variable Viento desde OSO
Gusts 0.0 mph

Hoy
Alta -- | Baja -- ° F
--% Posibilidad de precipitaciones
Ayer
Alta -- | Baja -- ° F
Precip. -- pul
8:34 AM 5:54 PM
Luna nueva, 1% visible
Presión 30.39 pul
Visibilidad -9999.0 Millas
Nubes
Vientos helados 50 ° F
Punto de rocío 44 ° F
Humedad 80%
Precipitaciones 0.00 pul
Espesor de la nieve No disponible.
UV No disponible.
Polen No disponible.
Calidad del aire No disponible.
Flu Activity No disponible.
METAR LEVS 221630Z 06003KT 030V100 CAVOK 14/M00 Q1029

More Conditions Fewer Conditions

Presión 30.39 pul
Visibilidad -9999.0 Millas
Nubes
Vientos helados 50 ° F
Punto de rocío 44 ° F
Humedad 80%
Precipitaciones 0.00 pul
Espesor de la nieve No disponible.
UV No disponible.
Polen No disponible.
Calidad del aire No disponible.
Flu Activity No disponible.
METAR LEVS 221630Z 06003KT 030V100 CAVOK 14/M00 Q1029

More Conditions Fewer Conditions

10-Day Weather Forecast

Almanac

Astronomía

Dec. 22, 2014 Salida Puesta
Hora real
Crepúsculo civil
Crepúsculo náutico
Crepúsculo astronómico
Luna
Horas de luz
Horas de luz
Tomorrow will be .
, % of the Moon is Illuminated

Extremos de hoy

Máximos del país Bajas del país

Community

WunderPhotos

Upload Photos

1,779,645 ¡fotos cargadas!

WunderBlogs® & News

Nearby

Calidad del aire

  Calidad del aire Índice AQ Contaminante
Not available.

Grosos de nieve

Estación Profundido Altura

Actividad de terremotos

Ciudad Distance Mag. Tiempo y dato
Magnitud mínima muestra es 2,5.

Temperaturas de aguas costeras

Lugar Temperatura

Estaciones meteorológicas cercanas